Stream Gauges

 

John Redmond Lake



    
SHEF ID:       JRLK1     John Redmond Lake
STATION TYPE:  RESERVOIR
Normal Pool:  Bottom =  1026.00, Top =  1041.00

               PRECIP ELEVATION   STORAGE    INFLOW   RELEASE  AIR-TEMP  WIND-DIRWIND-SPEED REL-HUMID SOLAR-RAD   VOLTAGE  BAT-LOAD
                   in        ft     ac-ft       cfs       cfs         F       deg       mph         %      W/m2      volt      volt
              Ccp-Rev   Ccp-Rev   Ccp-Rev  Regi-Rev  Regi-Rev   Ccp-Rev   Ccp-Rev   Ccp-Rev   Ccp-Rev   Ccp-Rev   Ccp-Rev   Ccp-Rev
(US/Central)
06/23 00:00      0.00   1041.01     67397        20        57     69.53    306.10      6.10     82.45      0.00     12.77     12.50
06/23 01:00      0.00   1040.98     67124        20        58     66.63    132.60      5.20     91.52      0.00     12.76     12.50
06/23 02:00      0.00   1041.01     67397        20        57     66.96    118.20     13.00     91.31      0.00     12.75     12.48
06/23 03:00      0.00   1041.10     68247        20        57     67.46     45.00      6.40     90.36      0.00     12.74     12.48
06/23 04:00      0.00   1040.98     67124        10        57     68.04    323.20     11.60     91.10      0.00     12.73     12.47
06/23 05:00      0.00   1040.91     66501         0        57     66.42      4.20      7.40     95.30      0.00     12.71     12.45
06/23 06:00      0.00   1040.85     65966         0        57     64.31     72.30      4.10     99.79      0.00     12.69     12.44
06/23 07:00      0.00   1040.84     65877         6        56     64.17    100.70      3.10    100.22     39.60     12.79     12.44
06/23 08:00      0.00   1040.89     66322        13        56     67.35     90.70      3.80     96.40    162.10     12.98     12.61
06/23 09:00      0.00   1040.89     66322        23        57     70.29    126.80      6.30     83.45    417.50     13.35     12.96
06/23 10:00      0.00   1040.90     66411        23        57     72.54    182.40      6.50     79.56    630.10     13.68     13.17
06/23 11:00      0.00   1040.90     66411        23        57     73.90    244.00      7.00     77.24    799.40     13.92     12.98
06/23 12:00      0.00   1040.88     66233        16        57     75.47    300.60      6.20     74.18    926.30     13.66     12.88
06/23 13:00      0.00   1040.89     66322        10        57     77.61    342.50      4.00     67.69    991.40     13.70     12.88
06/23 14:00      0.00   1040.88     66233      -901      -901     79.59    340.70      4.80     61.79   1007.50     13.41     12.90
06/23 15:00      ----      ----      ----      ----      ----      ----      ----      ----      ----      ----      ----      ----
06/23 16:00      ----      ----      ----      ----      ----      ----      ----      ----      ----      ----      ----      ----
06/23 17:00      ----      ----      ----      ----      ----      ----      ----      ----      ----      ----      ----      ----
06/23 18:00      ----      ----      ----      ----      ----      ----      ----      ----      ----      ----      ----      ----
06/23 19:00      ----      ----      ----      ----      ----      ----      ----      ----      ----      ----      ----      ----
06/23 20:00      ----      ----      ----      ----      ----      ----      ----      ----      ----      ----      ----      ----
06/23 21:00      ----      ----      ----      ----      ----      ----      ----      ----      ----      ----      ----      ----
06/23 22:00      ----      ----      ----      ----      ----      ----      ----      ----      ----      ----      ----      ----
06/23 23:00      ----      ----      ----      ----      ----      ----      ----      ----      ----      ----      ----      ----

    

 

Burlington



    
SHEF ID:       BRLK1     Neosho River, Burlington, KS
STATION TYPE:  

               PRECIP     STAGE  RIV-FLOW  BAT-LOAD
                   in        ft       cfs      volt
              Ccp-Rev   Ccp-Rev   Ccp-Rev   Ccp-Rev
(US/Central)
06/23 00:00      0.00      5.78        55     12.83
06/23 01:00      0.00      5.78        55     12.83
06/23 02:00      0.00      5.77        53     12.77
06/23 03:00      0.00      5.77        53     12.77
06/23 04:00      0.00      5.78        55     12.77
06/23 05:00      0.00      5.78        55     12.71
06/23 06:00      0.00      5.78        55     12.71
06/23 07:00      0.00      5.78        55     12.65
06/23 08:00      0.00      5.78        55     12.71
06/23 09:00      0.00      5.78        55     12.71
06/23 10:00      0.00      5.78        55     13.30
06/23 11:00      0.00      5.77        53     13.36
06/23 12:00      0.00      5.77        53     13.42
06/23 13:00      0.00      5.77        53     13.36
06/23 14:00      0.00      5.77        53     13.30
06/23 15:00      0.00      5.77        53     13.24
06/23 16:00      ----      ----      ----      ----
06/23 17:00      ----      ----      ----      ----
06/23 18:00      ----      ----      ----      ----
06/23 19:00      ----      ----      ----      ----
06/23 20:00      ----      ----      ----      ----
06/23 21:00      ----      ----      ----      ----
06/23 22:00      ----      ----      ----      ----
06/23 23:00      ----      ----      ----      ----

    

 

Iola



    
SHEF ID:       IOLK1     NEOSHO RIVER NEAR IOLA
STATION TYPE:  

               PRECIP     STAGE  RIV-FLOW  AIR-TEMP  BAT-LOAD
                   in        ft       cfs         F      volt
              Ccp-Rev   Ccp-Rev   Ccp-Rev   Ccp-Rev   Ccp-Rev
(US/Central)
06/23 00:00      0.00      6.76        58     69.59     12.81
06/23 01:00      0.00      6.76        58     69.87     12.81
06/23 02:00      0.00      6.77        63     68.16     12.73
06/23 03:00      0.00      6.77        63     67.53     12.73
06/23 04:00      0.00      6.76        58     66.70     12.73
06/23 05:00      0.00      6.77        63     65.90     12.65
06/23 06:00      0.00      6.77        63     65.75     12.65
06/23 07:00      0.00      6.77        63     67.02     12.65
06/23 08:00      0.00      6.76        58     70.20     12.65
06/23 09:00      0.00      6.76        58     75.92     13.37
06/23 10:00      0.00      6.77        63     78.38     13.53
06/23 11:00      0.00      6.77        63     81.09     13.44
06/23 12:00      0.00      6.77        63     84.05     13.44
06/23 13:00      0.00      6.76        58     85.41     13.44
06/23 14:00      0.00      6.77        63     88.40     13.53
06/23 15:00      ----      ----      ----      ----      ----
06/23 16:00      ----      ----      ----      ----      ----
06/23 17:00      ----      ----      ----      ----      ----
06/23 18:00      ----      ----      ----      ----      ----
06/23 19:00      ----      ----      ----      ----      ----
06/23 20:00      ----      ----      ----      ----      ----
06/23 21:00      ----      ----      ----      ----      ----
06/23 22:00      ----      ----      ----      ----      ----
06/23 23:00      ----      ----      ----      ----      ----

    

 

Chanute



    
SHEF ID:       CNUK1     NEOSHO R NR CHANUTE, KS
STATION TYPE:  

               PRECIP     STAGE  RIV-FLOW   VOLTAGE  BAT-LOAD
                   in        ft       cfs      volt      volt
              Ccp-Rev   Ccp-Rev   Ccp-Rev   Ccp-Rev   Ccp-Rev
(US/Central)
06/23 00:00      0.01      7.56        83     12.81     12.65
06/23 01:00      0.00      7.57        86     12.81     12.65
06/23 02:00      0.01      7.52        74     12.81     12.65
06/23 03:00      0.00      7.57        86     12.81     12.65
06/23 04:00      0.00      7.56        83     12.73     12.65
06/23 05:00      0.00      7.56        83     12.73     12.57
06/23 06:00      0.00      7.56        83     12.73     12.57
06/23 07:00      0.00      7.56        83     12.73     12.57
06/23 08:00      0.00      7.56        83     12.89     12.65
06/23 09:00      0.00      7.56        83     13.05     12.89
06/23 10:00      0.00      7.56        83     13.05     12.97
06/23 11:00      0.00      7.56        83     13.21     12.97
06/23 12:00      0.00      7.55        81     13.84     13.05
06/23 13:00      0.00      7.55        81     13.60     13.60
06/23 14:00      0.00      7.55        81     13.60     13.44
06/23 15:00      ----      ----      ----      ----      ----
06/23 16:00      ----      ----      ----      ----      ----
06/23 17:00      ----      ----      ----      ----      ----
06/23 18:00      ----      ----      ----      ----      ----
06/23 19:00      ----      ----      ----      ----      ----
06/23 20:00      ----      ----      ----      ----      ----
06/23 21:00      ----      ----      ----      ----      ----
06/23 22:00      ----      ----      ----      ----      ----
06/23 23:00      ----      ----      ----      ----      ----

    

 

Parsons



    
SHEF ID:       PPFK1     NEOSHO RIVER NEAR PARSONS 8E
STATION TYPE:  

               PRECIP     STAGE  RIV-FLOW ELEVATION  BAT-LOAD
                   in        ft       cfs        ft      volt
              Ccp-Rev   Ccp-Rev   Ccp-Rev   Ccp-Rev   Ccp-Rev
(US/Central)
06/23 00:00      0.00      6.95        61      ----     12.65
06/23 01:00      0.00      6.96        63      ----     12.65
06/23 02:00      0.00      6.96        63      ----     12.65
06/23 03:00      0.00      6.96        63      ----     12.60
06/23 04:00      0.00      6.96        63      ----     12.60
06/23 05:00      0.00      6.96        63      ----     12.54
06/23 06:00      0.00      6.95        61      ----     12.48
06/23 07:00      0.00      6.95        61      ----     12.48
06/23 08:00      0.00      6.95        61      ----     12.48
06/23 09:00      0.00      6.95        61      ----     12.71
06/23 10:00      0.00      6.95        61      ----     13.18
06/23 11:00      0.00      6.95        61      ----     13.30
06/23 12:00      0.00      6.95        61      ----     13.42
06/23 13:00      0.00      6.95        61      ----     14.24
06/23 14:00      ----      6.94      ----      ----     14.00
06/23 15:00      ----      ----      ----      ----      ----
06/23 16:00      ----      ----      ----      ----      ----
06/23 17:00      ----      ----      ----      ----      ----
06/23 18:00      ----      ----      ----      ----      ----
06/23 19:00      ----      ----      ----      ----      ----
06/23 20:00      ----      ----      ----      ----      ----
06/23 21:00      ----      ----      ----      ----      ----
06/23 22:00      ----      ----      ----      ----      ----
06/23 23:00      ----      ----      ----      ----      ----

    

 

Oswego



    
SHEF ID:       OSOK1     Oswego hwy 160
STATION TYPE:  

               PRECIP     STAGE  RIV-FLOW   VOLTAGE  BAT-LOAD
                   in        ft       cfs      volt      volt
              Ccp-Rev   Ccp-Rev   Ccp-Rev   Ccp-Rev   Ccp-Rev
(US/Central)
06/23 00:00      0.00      8.09       135     12.65     12.57
06/23 01:00      0.00      8.09       135     12.65     12.57
06/23 02:00      0.00      8.08       134     12.65     12.57
06/23 03:00      0.00      8.09       135     12.65     12.49
06/23 04:00      0.00      8.08       134     12.57     12.49
06/23 05:00      0.00      8.09       135     12.57     12.49
06/23 06:00      0.00      8.09       135     12.57     12.41
06/23 07:00      0.00      8.08       134     12.65     12.49
06/23 08:00      0.00      8.08       134     12.73     12.57
06/23 09:00      0.00      8.08       134     13.21     12.97
06/23 10:00      0.00      8.05       130     13.60     13.44
06/23 11:00      0.00      8.07       133     13.60     13.29
06/23 12:00      0.00      8.08       134     13.84     13.21
06/23 13:00      0.00      8.08       134     13.92     13.13
06/23 14:00      0.00      8.08       134     13.53     12.97
06/23 15:00      ----      ----      ----      ----      ----
06/23 16:00      ----      ----      ----      ----      ----
06/23 17:00      ----      ----      ----      ----      ----
06/23 18:00      ----      ----      ----      ----      ----
06/23 19:00      ----      ----      ----      ----      ----
06/23 20:00      ----      ----      ----      ----      ----
06/23 21:00      ----      ----      ----      ----      ----
06/23 22:00      ----      ----      ----      ----      ----
06/23 23:00      ----      ----      ----      ----      ----

    

 

Commerce



    
SHEF ID:       COMO2     Neosho River nr Commerce, OK
STATION TYPE:  

               PRECIP     STAGE  STAGE(2)  RIV-FLOW  BAT-LOAD
                   in        ft        ft       cfs      volt
              Ccp-Rev   Ccp-Rev   Ccp-Rev   Ccp-Rev   Ccp-Rev
(US/Central)
06/23 00:00      0.00      2.20      2.21        78     12.65
06/23 01:00      0.00      2.19      2.20        75     12.65
06/23 02:00      0.00      2.19      2.20        75     12.65
06/23 03:00      0.00      2.20      2.20        78     12.57
06/23 04:00      0.00      2.19      2.19        75     12.57
06/23 05:00      0.00      2.19      2.20        75     12.57
06/23 06:00      0.00      2.19      2.19        75     12.57
06/23 07:00      0.00      2.19      2.19        75     12.57
06/23 08:00      0.00      2.19      2.19        75     12.73
06/23 09:00      0.00      2.19      2.20        75     12.89
06/23 10:00      0.00      2.19      2.19        75     13.05
06/23 11:00      0.00      2.18      2.19        72     13.37
06/23 12:00      0.00      2.15      2.19        62     13.21
06/23 13:00      0.00      2.14      2.18        59     12.97
06/23 14:00      0.00      2.13      2.19        57     12.89
06/23 15:00      ----      ----      ----      ----      ----
06/23 16:00      ----      ----      ----      ----      ----
06/23 17:00      ----      ----      ----      ----      ----
06/23 18:00      ----      ----      ----      ----      ----
06/23 19:00      ----      ----      ----      ----      ----
06/23 20:00      ----      ----      ----      ----      ----
06/23 21:00      ----      ----      ----      ----      ----
06/23 22:00      ----      ----      ----      ----      ----
06/23 23:00      ----      ----      ----      ----      ----

    

 

Spring River , Quapaw



    
SHEF ID:       QUAO2     Spring River near Quapaw, OK
STATION TYPE:  

               PRECIP     STAGE  STAGE(2)  RIV-FLOW  BAT-LOAD
                   in        ft        ft       cfs      volt
              Ccp-Rev   Ccp-Rev   Ccp-Rev   Ccp-Rev   Ccp-Rev
(US/Central)
06/23 00:00      0.00      6.11      6.11       448     12.41
06/23 01:00      0.00      6.11      6.11       448     12.41
06/23 02:00      0.00      6.11      6.10       448     12.41
06/23 03:00      0.00      6.10      6.11       443     12.33
06/23 04:00      0.00      6.10      6.11       443     12.33
06/23 05:00      0.00      6.10      6.10       443     12.33
06/23 06:00      0.00      6.09      6.10       439     12.33
06/23 07:00      0.00      6.09      6.09       439     12.25
06/23 08:00      0.00      6.09      6.09       439     12.57
06/23 09:00      0.00      6.08      6.08       434     12.81
06/23 10:00      0.00      6.08      6.08       434     13.05
06/23 11:00      0.00      6.08      6.05       434     13.29
06/23 12:00      0.00      6.08      6.00       434     13.13
06/23 13:00      0.00      6.07      5.99       430     13.05
06/23 14:00      0.00      6.07      5.99       430     13.05
06/23 15:00      0.00      6.06      5.97       425     13.05
06/23 16:00      ----      ----      ----      ----     12.97
06/23 17:00      ----      ----      ----      ----      ----
06/23 18:00      ----      ----      ----      ----      ----
06/23 19:00      ----      ----      ----      ----      ----
06/23 20:00      ----      ----      ----      ----      ----
06/23 21:00      ----      ----      ----      ----      ----
06/23 22:00      ----      ----      ----      ----      ----
06/23 23:00      ----      ----      ----      ----      ----

    

 

Elk River, Tiff City



    
SHEF ID:       TIFM7     Elk River near Tiff City, Mo
STATION TYPE:  

               PRECIP     STAGE  STAGE(2)  RIV-FLOW   VOLTAGE
                   in        ft        ft       cfs      volt
              Ccp-Rev   Ccp-Rev   Ccp-Rev   Ccp-Rev   Ccp-Rev
(US/Central)
06/23 00:00      0.00      2.92      2.93       198     12.90
06/23 01:00      0.00      2.92      2.94       198     12.90
06/23 02:00      0.00      2.92      2.94       198     12.80
06/23 03:00      0.00      2.92      2.94       198     12.80
06/23 04:00      0.00      2.92      2.94       198     12.80
06/23 05:00      0.00      2.92      2.93       198     12.80
06/23 06:00      0.00      2.92      2.94       198     12.80
06/23 07:00      0.00      2.91      2.94       196     13.00
06/23 08:00      0.00      2.91      2.96       196     13.00
06/23 09:00      0.00      2.91      2.96       196     13.20
06/23 10:00      0.00      2.91      2.95       196     13.70
06/23 11:00      0.00      2.91      2.92       196     13.70
06/23 12:00      0.00      2.91      2.92       196     14.00
06/23 13:00      0.00      2.91     33.62       196     13.60
06/23 14:00      0.00      2.91     33.64       196     13.80
06/23 15:00      ----      ----      ----      ----      ----
06/23 16:00      ----      ----      ----      ----      ----
06/23 17:00      ----      ----      ----      ----      ----
06/23 18:00      ----      ----      ----      ----      ----
06/23 19:00      ----      ----      ----      ----      ----
06/23 20:00      ----      ----      ----      ----      ----
06/23 21:00      ----      ----      ----      ----      ----
06/23 22:00      ----      ----      ----      ----      ----
06/23 23:00      ----      ----      ----      ----      ----

    

 

Grand Lake, Pensacola Dam



    
SHEF ID:       PENO2     Lake O' the Cherokees at Langley
STATION TYPE:  RESERVOIR

               PRECIP ELEVATION   STORAGE    INFLOW   RELEASE  AIR-TEMP  WIND-DIRWIND-SPEED REL-HUMID SOLAR-RAD   VOLTAGE  BAT-LOAD
                   in        ft     ac-ft       cfs       cfs         F       deg       mph         %      W/m2      volt      volt
              Ccp-Rev   Ccp-Rev   Ccp-Rev  Regi-Rev  Regi-Rev   Ccp-Rev   Ccp-Rev   Ccp-Rev   Ccp-Rev   Ccp-Rev   Ccp-Rev   Ccp-Rev
(US/Central)
06/23 00:00      0.00    743.98   1473082      -901      -901     73.65    292.13      3.24     82.20      0.00     14.43     12.89
06/23 01:00      0.00    744.00   1473900      -901      -901     74.95    265.27      4.39     72.53      0.00     12.95     12.89
06/23 02:00      0.00    744.01   1474315      -901      -901     73.85    263.66      5.81     70.87      0.00     12.89     12.49
06/23 03:00      0.00    744.04   1475560      -901      -901     71.38    183.53      3.27     80.61      0.00     12.87     12.49
06/23 04:00      0.00    743.99   1473491      -901      -901     72.10    303.80      3.25     79.33      0.00     12.84     12.17
06/23 05:00      0.00    744.02   1474730      -901      -901     70.93     62.51      1.07     84.53      0.00     12.82     12.41
06/23 06:00      0.00    744.03   1475145      -901      -901     70.25     37.03      0.72     86.70      0.00     12.82     12.49
06/23 07:00      0.00    744.03   1475145      -901      -901     71.80    357.04      3.03     86.37     33.39     12.81     12.41
06/23 08:00      0.00    744.00   1473900      -901      -901     70.52    103.49      0.68     88.34     56.58     12.78     12.49
06/23 09:00      0.00    743.99   1473491      -901      -901     71.38    121.51      0.75     84.76    103.00     12.77     12.41
06/23 10:00      0.00    744.00   1473900      -901      -901     72.50    162.85      1.75     81.82    184.80     12.77     12.41
06/23 11:00      0.00    743.99   1473491      -901      -901     75.11    167.86      4.34     74.09    459.72     12.75     12.41
06/23 12:00      0.00    743.96   1472264      -901      -901     77.50    190.30      5.72     68.67    742.87     12.75     12.41
06/23 13:00      0.00    743.98   1473082      -901      -901     79.30    230.80      4.81     65.44    884.28     12.74     12.33
06/23 14:00      0.00    744.01   1474315      -901      -901     81.82    216.45      4.82     59.21    905.65     12.72     12.33
06/23 15:00      0.00    744.00   1473900      -901      -901     83.66    217.97      4.04     55.36    866.19     12.73     12.33
06/23 16:00      ----      ----      ----      -901      ----      ----      ----      ----      ----      ----      ----      ----
06/23 17:00      ----      ----      ----      ----      ----      ----      ----      ----      ----      ----      ----      ----
06/23 18:00      ----      ----      ----      ----      ----      ----      ----      ----      ----      ----      ----      ----
06/23 19:00      ----      ----      ----      ----      ----      ----      ----      ----      ----      ----      ----      ----
06/23 20:00      ----      ----      ----      ----      ----      ----      ----      ----      ----      ----      ----      ----
06/23 21:00      ----      ----      ----      ----      ----      ----      ----      ----      ----      ----      ----      ----
06/23 22:00      ----      ----      ----      ----      ----      ----      ----      ----      ----      ----      ----      ----
06/23 23:00      ----      ----      ----      ----      ----      ----      ----      ----      ----      ----      ----      ----

    

 

Big Cabin Creek



    
SHEF ID:       BGCO2     Big Cabin Creek near Big Cabin,
STATION TYPE:  

               PRECIP     STAGE  STAGE(2)  RIV-FLOW  BAT-LOAD
                   in        ft        ft       cfs      volt
              Ccp-Rev   Ccp-Rev   Ccp-Rev   Ccp-Rev   Ccp-Rev
(US/Central)
06/23 00:00      0.00     12.23     12.18         6     12.65
06/23 01:00      0.00     12.23     12.18         6     12.57
06/23 02:00      0.00     12.22     12.18         5     12.57
06/23 03:00      0.00     12.23     12.18         6     12.57
06/23 04:00      0.00     12.22     12.18         5     12.57
06/23 05:00      0.00     12.22     12.18         5     12.57
06/23 06:00      0.00     12.21     12.18         5     12.49
06/23 07:00      0.00     12.21     12.18         5     12.49
06/23 08:00      0.00     12.21     12.18         5     12.49
06/23 09:00      0.00     12.20     12.18         5     12.57
06/23 10:00      0.00     12.20     12.17         5     12.65
06/23 11:00      0.00     12.20     12.16         5     13.37
06/23 12:00      0.00     12.20     12.15         5     13.29
06/23 13:00      0.00     12.20     12.14         5     13.44
06/23 14:00      0.00     12.19     12.13         4     13.53
06/23 15:00      ----      ----      ----      ----      ----
06/23 16:00      ----      ----      ----      ----      ----
06/23 17:00      ----      ----      ----      ----      ----
06/23 18:00      ----      ----      ----      ----      ----
06/23 19:00      ----      ----      ----      ----      ----
06/23 20:00      ----      ----      ----      ----      ----
06/23 21:00      ----      ----      ----      ----      ----
06/23 22:00      ----      ----      ----      ----      ----
06/23 23:00      ----      ----      ----      ----      ----

    

 

Spavinaw Lake (Lower)




 

Hudson Lake



    
SHEF ID:       MFDO2     Lake Hudson near Locust Grove, O
STATION TYPE:  RESERVOIR

               PRECIP ELEVATION   STORAGE   TW-ELEV    INFLOW   RELEASE  AIR-TEMP  WIND-DIRWIND-SPEED REL-HUMID SOLAR-RAD   VOLTAGE  BAT-LOAD
                   in        ft     ac-ft        ft       cfs       cfs         F       deg       mph         %      W/m2      volt      volt
              Ccp-Rev   Ccp-Rev   Ccp-Rev   Ccp-Rev  Regi-Rev  Regi-Rev   Ccp-Rev   Ccp-Rev   Ccp-Rev   Ccp-Rev   Ccp-Rev   Ccp-Rev   Ccp-Rev
(US/Central)
06/23 00:00      0.00    619.90    210189    561.01      -901      -901     73.54     42.50      1.70     79.69      0.00     12.72     12.17
06/23 01:00      0.00    619.83    209411    560.82      -901      -901     75.31    310.90      5.60     76.08      0.00     12.70     12.17
06/23 02:00      0.00    619.77    208745    560.68      -901      -901     75.76    306.80      8.00     69.97      0.00     12.68     12.17
06/23 03:00      0.01    619.63    207189    560.50      -901      -901     72.68    236.80      4.30     80.21      0.00     12.66     12.17
06/23 04:00      0.00    619.75    208522    560.42      -901      -901     70.48    111.80      3.10     85.21      0.00     12.64     12.09
06/23 05:00      0.00    619.73    208300    560.33      -901      -901     71.26    221.80      1.20     82.58      0.00     12.63     12.09
06/23 06:00      0.00    619.70    207967    560.25      -901      -901     70.65    154.20      1.90     85.41      0.00     12.61     12.09
06/23 07:00      0.00    619.69    207856    560.17      -901      -901     70.77    327.00      2.20     86.82     10.40     12.60     12.09
06/23 08:00      0.00    619.65    207411    560.10      -901      -901     70.70    158.00      2.30     84.89     22.10     12.62     12.09
06/23 09:00      0.00    619.66    207523    560.04      -901      -901     71.38    118.10      2.10     83.29     51.60     12.62     12.09
06/23 10:00      0.00    619.66    207523    559.99      -901      -901     72.54    260.80      1.30     81.26    125.80     12.89     12.09
06/23 11:00      0.00    619.65    207411    559.95      -901      -901     75.29    255.40      2.50     75.55    323.00     13.25     12.33
06/23 12:00      0.00    619.66    207523    559.91      -901      -901     77.81    264.30      3.50     69.46    560.70     13.06     12.65
06/23 13:00      0.00    619.66    207523    559.87      -901      -901     80.11    270.80      5.20     63.39    376.10     12.86     12.49
06/23 14:00      0.00    619.67    207634    559.84      -901      -901     82.62    269.10      5.40     56.90    308.30     12.85     12.33
06/23 15:00      0.00    619.77    208745    559.80      -901      -901     83.88    277.00      5.80     55.17    399.00     12.89     12.33
06/23 16:00      ----      ----      ----      ----      ----      ----      ----      ----      ----      ----      ----      ----      ----
06/23 17:00      ----      ----      ----      ----      ----      ----      ----      ----      ----      ----      ----      ----      ----
06/23 18:00      ----      ----      ----      ----      ----      ----      ----      ----      ----      ----      ----      ----      ----
06/23 19:00      ----      ----      ----      ----      ----      ----      ----      ----      ----      ----      ----      ----      ----
06/23 20:00      ----      ----      ----      ----      ----      ----      ----      ----      ----      ----      ----      ----      ----
06/23 21:00      ----      ----      ----      ----      ----      ----      ----      ----      ----      ----      ----      ----      ----
06/23 22:00      ----      ----      ----      ----      ----      ----      ----      ----      ----      ----      ----      ----      ----
06/23 23:00      ----      ----      ----      ----      ----      ----      ----      ----      ----      ----      ----      ----      ----